Warning: Javascript must be enabled to use all the features on this page!


Page Loading - Please Wait...

Click to hideNews Bulletins

Peak Streamflow for the Nation

USGS 01174500 EAST BRANCH SWIFT RIVER NEAR HARDWICK, MA

Worcester County, Massachusetts
Hydrologic Unit Code 01080204
Latitude  42°23'36", Longitude  72°14'20" NAD27
Drainage area 43.7  square miles
Contributing drainage area 43.7  square miles
Gage datum 504.06 feet above NAVD88
Output formats
Table
Graph
Tab-separated file
peakfq (watstore) format
Reselect output format
Water
Year
Date Gage
Height
(feet)
Stream-
flow
(cfs)
1937 1937-04-07 6.43 392
1938 1938-09-21 15.05 6,780
1939 1938-12-06 7.35 672
1940 1940-04-13 21.05 1,000
1941 1941-05-10 20.02 271
1942 1942-03-09 21.43 1,240
1943 1943-03-21 20.18 339
1944 1944-06-25 22.49 2,300
1945 1945-05-19 20.33 428
1946 1946-03-09 20.78 736
1947 1947-03-15 20.36 446
1948 1948-03-23 20.98 884
1949 1949-01-06 20.55 575
1950 1950-03-30 20.34 434
1951 1951-04-04 20.52 554
1952 1952-01-27 20.51 547
1953 1953-01-25 20.70 680
1954 1954-04-18 20.68 666
1955 1955-08-19 21.86 1,650
1956 1956-04-17 20.99 847
1957 1957-01-23 20.49 540
1958 1958-04-07 20.65 645
1959 1959-04-03 21.06 948
1960 1960-04-05 21.39 1,220
1961 1961-03-30 20.33 422
1962 1962-04-01 21.06 948
1963 1963-04-03 20.54 568
1964 1964-03-10 20.24 374
1965 1965-04-17 19.92 200
1966 1966-03-25 20.41 477
1967 1967-05-26 20.75 701
1968 1968-03-19 20.94 852
1969 1969-04-06 20.73 701
1970 1970-04-03 20.91 828
1971 1971-04-04 20.41 477
1972 1972-03-23 20.55 575
1973 1973-02-03 20.89 813
1974 1973-12-22 21.27 1,120
1975 1975-09-27 20.98 884
1976 1976-01-28 21.39 1,220
1977 1977-03-14 21.31 1,150
1978 1978-01-09 20.84 777
1979 1979-03-07 22.38 2,180
1980 1980-04-10 20.98 882
1981 1981-07-06 20.53 559
1982 1982-06-06 20.91 828
1983 1983-04-11 20.561,2 569
1984 1984-05-31 22.021 1,650
1985 1985-03-13 20.18 328
1986 1986-01-27 21.24 1,090
1987 1987-04-01 21.17 1,200
1988 1988-04-29 20.57 589
1989 1989-05-25 20.45 503
1990 1989-10-21 21.09 970
1991 1991-09-26 20.79 741
1992 1992-03-12 20.44 496
1993 1993-03-30 20.74 705
1994 1993-12-06 20.27 385
1995 1995-03-09 20.51 545
1996 1996-04-17 21.34 1,180
1997 1996-12-02 20.72 691
1998 1998-03-10 21.31 1,150
1999 1999-01-25 21.19 1,050
2000 2000-04-22 20.50 538
2001 2001-04-10 20.71 684
2002 2002-05-14 20.29 398
2003 2003-06-23 20.81 755
2004 2003-12-18 20.93 844
2005 2005-04-03 21.30 1,150
2006 2005-10-15 21.38 1,210
2007 2007-04-16 21.15 1,020
2008 2008-07-24 21.17 1,040
2009 2008-12-12 21.01 906
2010 2010-03-31 20.92 836
2011 2011-03-07 22.04 1,830
2012 2011-12-08 20.80 748
2013 2013-06-14 20.68 663
2014 2014-03-31 21.08 1,050
2015 2014-12-10 20.32 472
2016 2016-02-25 20.38 511
2017 2017-04-07 20.29 387
2018 2018-01-13 21.34 1,270
2019 2019-01-25 21.32 1,260
2020 2019-12-15 20.59 669
?
  Peak Gage-Height Qualification Codes.